Time;durP1;ratioP1;P1;durP2;ratioP2;P2;SDS_P1;SDS_P2;PMS_P1;PMS_P2;Temp;Humidity;BMP_temperature;BMP_pressure;BME280_temperature;BME280_humidity;BME280_pressure;Samples;Min_cycle;Max_cycle;Signal;HPM_P1;HPM_P2
2023/12/19 00:01:19;;;;;;;10.43;6.25;;;;;;;;;;5087259;28;20067;-67
2023/12/19 00:03:47;;;;;;;9.43;5.75;;;;;;;;;;5053670;28;20048;-67
2023/12/19 00:06:14;;;;;;;11.70;6.05;;;;;;;;;;5054965;28;20040;-67
2023/12/19 00:08:42;;;;;;;10.32;6.30;;;;;;;;;;5054737;28;20495;-67
2023/12/19 00:11:10;;;;;;;9.20;5.85;;;;;;;;;;5054794;28;20045;-67
2023/12/19 00:13:37;;;;;;;10.63;5.22;;;;;;;;;;5054572;28;20132;-67
2023/12/19 00:16:05;;;;;;;7.85;5.32;;;;;;;;;;5053468;28;20398;-68
2023/12/19 00:18:33;;;;;;;10.43;5.53;;;;;;;;;;5053421;28;20136;-68
2023/12/19 00:21:00;;;;;;;9.25;5.82;;;;;;;;;;5054526;28;20039;-67
2023/12/19 00:23:31;;;;;;;8.40;5.57;;;;;;;;;;5054725;28;20124;-67
2023/12/19 00:25:58;;;;;;;8.48;5.45;;;;;;;;;;5054560;28;20041;-67
2023/12/19 00:28:27;;;;;;;8.70;5.35;;;;;;;;;;5054427;28;20041;-67
2023/12/19 00:30:55;;;;;;;9.00;5.65;;;;;;;;;;5054435;28;20044;-68
2023/12/19 00:33:23;;;;;;;9.68;5.45;;;;;;;;;;5054295;28;20120;-67
2023/12/19 00:35:51;;;;;;;11.15;6.03;;;;;;;;;;5054320;28;20486;-67
2023/12/19 00:38:18;;;;;;;10.13;6.18;;;;;;;;;;5054299;28;20052;-67
2023/12/19 00:40:46;;;;;;;10.57;6.07;;;;;;;;;;5054221;28;20033;-67
2023/12/19 00:43:13;;;;;;;9.30;5.72;;;;;;;;;;5054190;28;20052;-68
2023/12/19 00:45:41;;;;;;;9.52;6.20;;;;;;;;;;5054206;28;20049;-67
2023/12/19 00:48:08;;;;;;;10.95;5.68;;;;;;;;;;5053861;28;20045;-67
2023/12/19 00:50:36;;;;;;;9.32;5.97;;;;;;;;;;5054189;28;20091;-67
2023/12/19 00:53:04;;;;;;;9.48;6.20;;;;;;;;;;5053850;28;20049;-67
2023/12/19 00:55:31;;;;;;;9.23;5.55;;;;;;;;;;5053876;28;20080;-67
2023/12/19 00:57:59;;;;;;;10.38;5.63;;;;;;;;;;5053951;28;20041;-68
2023/12/19 01:00:26;;;;;;;7.68;5.05;;;;;;;;;;5053864;28;20048;-67
2023/12/19 01:02:54;;;;;;;8.73;5.78;;;;;;;;;;5053733;28;20052;-67
2023/12/19 01:05:21;;;;;;;8.10;5.70;;;;;;;;;;5053729;28;20498;-67
2023/12/19 01:07:49;;;;;;;8.77;5.55;;;;;;;;;;5053744;28;20120;-67
2023/12/19 01:10:16;;;;;;;9.20;5.43;;;;;;;;;;5053665;28;20033;-67
2023/12/19 01:12:44;;;;;;;10.10;5.90;;;;;;;;;;5053476;28;20087;-67
2023/12/19 01:15:12;;;;;;;10.80;6.25;;;;;;;;;;5053094;28;20049;-67
2023/12/19 01:17:40;;;;;;;8.98;5.65;;;;;;;;;;5053525;28;20033;-67
2023/12/19 01:20:09;;;;;;;10.27;6.10;;;;;;;;;;5036004;28;20064;-68
2023/12/19 01:22:36;;;;;;;10.48;5.90;;;;;;;;;;5053351;28;20487;-68
2023/12/19 01:25:04;;;;;;;7.97;5.50;;;;;;;;;;5053545;28;20044;-67
2023/12/19 01:27:31;;;;;;;9.90;6.47;;;;;;;;;;5053607;28;20048;-68
2023/12/19 01:29:59;;;;;;;10.25;5.93;;;;;;;;;;5053400;28;20099;-67
2023/12/19 01:32:27;;;;;;;9.25;5.97;;;;;;;;;;5053256;28;20091;-67
2023/12/19 01:34:55;;;;;;;8.70;5.38;;;;;;;;;;5051950;28;20705;-67
2023/12/19 01:37:23;;;;;;;11.77;5.57;;;;;;;;;;5053146;28;20655;-67
2023/12/19 01:39:50;;;;;;;7.97;5.18;;;;;;;;;;5053075;28;20080;-67
2023/12/19 01:42:18;;;;;;;8.82;5.55;;;;;;;;;;5052877;28;20475;-67
2023/12/19 01:44:55;;;;;;;9.35;5.82;;;;;;;;;;5053045;28;20041;-68
2023/12/19 01:47:23;;;;;;;8.30;5.03;;;;;;;;;;5052640;28;20402;-68
2023/12/19 01:49:51;;;;;;;12.05;5.93;;;;;;;;;;5052903;28;20498;-68
2023/12/19 01:52:19;;;;;;;8.73;5.40;;;;;;;;;;5051583;28;20483;-68
2023/12/19 01:54:47;;;;;;;9.43;5.85;;;;;;;;;;5052872;28;20055;-68
2023/12/19 01:57:15;;;;;;;8.90;5.53;;;;;;;;;;5052838;28;20475;-68
2023/12/19 01:59:43;;;;;;;8.98;5.85;;;;;;;;;;5052760;28;20045;-68
2023/12/19 02:02:10;;;;;;;9.27;5.43;;;;;;;;;;5051637;28;20045;-67
2023/12/19 02:04:38;;;;;;;9.65;5.43;;;;;;;;;;5051481;28;20041;-68
2023/12/19 02:07:05;;;;;;;9.88;5.82;;;;;;;;;;5052713;28;20051;-68
2023/12/19 02:09:34;;;;;;;11.07;5.32;;;;;;;;;;5052654;28;20060;-68
2023/12/19 02:12:01;;;;;;;8.88;5.57;;;;;;;;;;5052695;28;20411;-68
2023/12/19 02:14:29;;;;;;;9.88;6.07;;;;;;;;;;5052550;28;20052;-67
2023/12/19 02:16:56;;;;;;;8.68;5.03;;;;;;;;;;5052608;28;20119;-67
2023/12/19 02:19:24;;;;;;;7.47;5.18;;;;;;;;;;5052738;28;20045;-67
2023/12/19 02:21:52;;;;;;;7.95;5.63;;;;;;;;;;5052344;28;20041;-67
2023/12/19 02:24:20;;;;;;;8.40;5.13;;;;;;;;;;5052447;28;20076;-67
2023/12/19 02:26:47;;;;;;;11.45;6.68;;;;;;;;;;5051723;28;20036;-68
2023/12/19 02:29:15;;;;;;;9.80;6.60;;;;;;;;;;5052358;28;20045;-68
2023/12/19 02:31:45;;;;;;;10.02;6.60;;;;;;;;;;5052431;28;20037;-68
2023/12/19 02:34:13;;;;;;;10.82;6.05;;;;;;;;;;5052232;28;20509;-68
2023/12/19 02:36:40;;;;;;;9.82;5.90;;;;;;;;;;5052430;28;20127;-68
2023/12/19 02:39:10;;;;;;;10.90;5.97;;;;;;;;;;5052342;28;20495;-68
2023/12/19 02:41:37;;;;;;;8.88;6.03;;;;;;;;;;5052358;28;20039;-68
2023/12/19 02:44:05;;;;;;;10.27;5.95;;;;;;;;;;5052226;28;20411;-68
2023/12/19 02:46:33;;;;;;;9.73;5.50;;;;;;;;;;5052182;28;20039;-68
2023/12/19 02:49:00;;;;;;;9.70;5.80;;;;;;;;;;5052186;28;20052;-68
2023/12/19 02:51:29;;;;;;;9.82;5.95;;;;;;;;;;5052198;28;20044;-68
2023/12/19 02:53:57;;;;;;;10.35;6.25;;;;;;;;;;5052154;28;20060;-68
2023/12/19 02:56:25;;;;;;;10.13;6.18;;;;;;;;;;5052146;28;20045;-68
2023/12/19 02:58:53;;;;;;;9.63;6.15;;;;;;;;;;5052157;28;20049;-67
2023/12/19 03:01:20;;;;;;;9.55;6.28;;;;;;;;;;5052116;28;20505;-67
2023/12/19 03:03:48;;;;;;;9.45;6.05;;;;;;;;;;5052228;28;20539;-67
2023/12/19 03:06:16;;;;;;;10.50;6.60;;;;;;;;;;5052178;28;20041;-67
2023/12/19 03:08:47;;;;;;;9.43;6.20;;;;;;;;;;5052168;28;20395;-67
2023/12/19 03:11:15;;;;;;;10.60;6.40;;;;;;;;;;5052006;28;20050;-67
2023/12/19 03:13:42;;;;;;;10.95;6.60;;;;;;;;;;5051989;28;20091;-67
2023/12/19 03:16:10;;;;;;;9.13;5.78;;;;;;;;;;5051981;28;20120;-67
2023/12/19 03:18:37;;;;;;;10.70;6.50;;;;;;;;;;5052199;28;20441;-67
2023/12/19 03:21:06;;;;;;;10.65;6.70;;;;;;;;;;5052030;28;20037;-67
2023/12/19 03:23:33;;;;;;;10.45;6.18;;;;;;;;;;5051915;28;20041;-67
2023/12/19 03:26:02;;;;;;;12.45;6.90;;;;;;;;;;5051943;28;20044;-67
2023/12/19 03:28:29;;;;;;;13.73;7.15;;;;;;;;;;5051941;28;20503;-67
2023/12/19 03:30:57;;;;;;;10.68;6.65;;;;;;;;;;5084216;28;20080;-68
2023/12/19 03:33:25;;;;;;;12.57;7.03;;;;;;;;;;5051718;28;20049;-68
2023/12/19 03:35:52;;;;;;;13.60;7.70;;;;;;;;;;5051839;28;20067;-67
2023/12/19 03:38:20;;;;;;;15.98;8.40;;;;;;;;;;5054385;28;20045;-67
2023/12/19 03:40:47;;;;;;;12.52;7.65;;;;;;;;;;5055266;28;20051;-67
2023/12/19 03:43:15;;;;;;;15.23;7.80;;;;;;;;;;5055384;28;20037;-67
2023/12/19 03:45:43;;;;;;;13.02;8.57;;;;;;;;;;5055326;28;20388;-67
2023/12/19 03:48:10;;;;;;;13.50;8.48;;;;;;;;;;5054904;28;20045;-67
2023/12/19 03:50:38;;;;;;;13.30;8.00;;;;;;;;;;5055175;28;20055;-67
2023/12/19 03:53:05;;;;;;;15.50;8.15;;;;;;;;;;5055115;28;20051;-67
2023/12/19 03:55:33;;;;;;;12.35;7.90;;;;;;;;;;5087351;28;20048;-67
2023/12/19 03:58:01;;;;;;;17.58;8.07;;;;;;;;;;5055116;28;20108;-67
2023/12/19 04:00:28;;;;;;;12.77;7.78;;;;;;;;;;5055061;28;20045;-68
2023/12/19 04:02:56;;;;;;;11.73;7.47;;;;;;;;;;5054872;28;20052;-67
2023/12/19 04:05:23;;;;;;;13.65;8.00;;;;;;;;;;5054959;28;20123;-68
2023/12/19 04:07:51;;;;;;;12.40;7.93;;;;;;;;;;5054768;28;20458;-68
2023/12/19 04:10:18;;;;;;;13.80;8.30;;;;;;;;;;5054830;28;20064;-68
2023/12/19 04:12:46;;;;;;;15.07;8.20;;;;;;;;;;5054825;28;20041;-68
2023/12/19 04:15:14;;;;;;;13.90;8.32;;;;;;;;;;5054668;28;20064;-67
2023/12/19 04:17:41;;;;;;;11.77;7.45;;;;;;;;;;5054727;28;20112;-68
2023/12/19 04:20:10;;;;;;;15.15;8.40;;;;;;;;;;5054671;28;20045;-68
2023/12/19 04:22:38;;;;;;;16.55;7.72;;;;;;;;;;5054660;28;20395;-67
2023/12/19 04:25:06;;;;;;;12.43;7.82;;;;;;;;;;5054603;28;20448;-67
2023/12/19 04:27:34;;;;;;;12.63;7.78;;;;;;;;;;5054542;28;20390;-67
2023/12/19 04:30:01;;;;;;;14.30;7.60;;;;;;;;;;5054359;28;20045;-67
2023/12/19 04:32:29;;;;;;;14.32;8.02;;;;;;;;;;5054415;28;20394;-68
2023/12/19 04:34:57;;;;;;;13.02;8.05;;;;;;;;;;5054268;28;20037;-67
2023/12/19 04:37:24;;;;;;;12.30;7.80;;;;;;;;;;5053239;28;20087;-67
2023/12/19 04:39:52;;;;;;;15.88;8.88;;;;;;;;;;5054362;28;20064;-68
2023/12/19 04:42:19;;;;;;;12.85;8.05;;;;;;;;;;5052958;28;20063;-68
2023/12/19 04:44:47;;;;;;;15.50;8.95;;;;;;;;;;5053036;28;20045;-68
2023/12/19 04:47:15;;;;;;;16.27;9.05;;;;;;;;;;5052720;28;20053;-67
2023/12/19 04:49:43;;;;;;;15.52;8.70;;;;;;;;;;5053363;28;20044;-68
2023/12/19 04:52:11;;;;;;;16.80;9.77;;;;;;;;;;5054355;28;20086;-69
2023/12/19 04:54:39;;;;;;;22.65;10.63;;;;;;;;;;5053375;28;20380;-70
2023/12/19 04:57:06;;;;;;;24.55;14.70;;;;;;;;;;5053800;28;20033;-68
2023/12/19 04:59:34;;;;;;;23.70;13.40;;;;;;;;;;5053887;28;20118;-68
2023/12/19 05:02:01;;;;;;;26.48;13.23;;;;;;;;;;5053788;28;20045;-68
2023/12/19 05:04:29;;;;;;;24.83;15.18;;;;;;;;;;5053836;28;20048;-68
2023/12/19 05:06:57;;;;;;;25.52;15.50;;;;;;;;;;5053831;28;20040;-68
2023/12/19 05:09:25;;;;;;;21.27;13.13;;;;;;;;;;5053866;28;20051;-68
2023/12/19 05:11:53;;;;;;;21.13;13.18;;;;;;;;;;5053707;28;20044;-68
2023/12/19 05:14:21;;;;;;;28.50;14.30;;;;;;;;;;5053484;28;20041;-68
2023/12/19 05:16:48;;;;;;;22.15;13.27;;;;;;;;;;5051929;28;20037;-68
2023/12/19 05:19:16;;;;;;;25.42;12.75;;;;;;;;;;5051522;28;20041;-68
2023/12/19 05:21:43;;;;;;;19.00;11.70;;;;;;;;;;5051637;28;20033;-68
2023/12/19 05:24:11;;;;;;;20.17;11.02;;;;;;;;;;5050416;28;20048;-68
2023/12/19 05:26:38;;;;;;;21.60;10.95;;;;;;;;;;5051536;28;20037;-68
2023/12/19 05:29:06;;;;;;;18.60;11.55;;;;;;;;;;5051415;28;20094;-68
2023/12/19 05:31:33;;;;;;;21.20;11.90;;;;;;;;;;5052478;28;20048;-68
2023/12/19 05:34:01;;;;;;;25.00;15.02;;;;;;;;;;5053298;28;20044;-68
2023/12/19 05:36:33;;;;;;;22.98;14.00;;;;;;;;;;5053039;28;20037;-68
2023/12/19 05:39:06;;;;;;;19.73;13.13;;;;;;;;;;5053082;28;20112;-68
2023/12/19 05:41:34;;;;;;;21.65;13.88;;;;;;;;;;5053373;28;20048;-68
2023/12/19 05:44:01;;;;;;;23.05;14.15;;;;;;;;;;5052952;28;20526;-68
2023/12/19 05:46:29;;;;;;;21.50;13.23;;;;;;;;;;5051773;28;20450;-68
2023/12/19 05:48:56;;;;;;;24.25;12.85;;;;;;;;;;5053196;28;20095;-68
2023/12/19 05:51:24;;;;;;;20.85;13.43;;;;;;;;;;5051793;28;20087;-68
2023/12/19 05:53:52;;;;;;;23.80;13.05;;;;;;;;;;5052490;28;20067;-69
2023/12/19 05:56:19;;;;;;;23.50;13.60;;;;;;;;;;5052307;28;20522;-69
2023/12/19 05:58:47;;;;;;;30.83;21.27;;;;;;;;;;5050110;28;20047;-69
2023/12/19 06:01:14;;;;;;;30.35;21.48;;;;;;;;;;5051820;28;20045;-69
2023/12/19 06:03:42;;;;;;;30.38;20.40;;;;;;;;;;5052652;28;20051;-69
2023/12/19 06:06:13;;;;;;;57.90;34.63;;;;;;;;;;5052702;28;20069;-69
2023/12/19 06:08:42;;;;;;;57.92;34.65;;;;;;;;;;5051591;28;20455;-69
2023/12/19 06:11:10;;;;;;;63.72;36.08;;;;;;;;;;5052680;28;20148;-69
2023/12/19 06:13:38;;;;;;;57.20;30.40;;;;;;;;;;5052728;28;20037;-69
2023/12/19 06:16:06;;;;;;;77.78;37.75;;;;;;;;;;5052500;28;20041;-69
2023/12/19 06:18:34;;;;;;;79.13;42.13;;;;;;;;;;5052652;28;20037;-69
2023/12/19 06:21:01;;;;;;;94.78;51.55;;;;;;;;;;5052527;28;20443;-69
2023/12/19 06:23:29;;;;;;;93.82;54.15;;;;;;;;;;5052557;28;20045;-69
2023/12/19 06:25:57;;;;;;;80.45;41.88;;;;;;;;;;5052479;28;20112;-69
2023/12/19 06:28:24;;;;;;;94.55;50.33;;;;;;;;;;5052448;28;20055;-69
2023/12/19 06:30:52;;;;;;;99.10;49.55;;;;;;;;;;5052390;28;20041;-69
2023/12/19 06:33:19;;;;;;;99.60;47.28;;;;;;;;;;5052381;28;20044;-69
2023/12/19 06:35:51;;;;;;;86.57;43.38;;;;;;;;;;5052349;28;20098;-69
2023/12/19 06:38:19;;;;;;;58.22;28.42;;;;;;;;;;5051634;28;20051;-69
2023/12/19 06:40:47;;;;;;;53.83;28.10;;;;;;;;;;5052305;28;20052;-69
2023/12/19 06:43:14;;;;;;;51.03;28.40;;;;;;;;;;5052254;28;20041;-69
2023/12/19 06:45:42;;;;;;;63.67;28.17;;;;;;;;;;5052308;28;20051;-69
2023/12/19 06:48:10;;;;;;;48.92;25.50;;;;;;;;;;5052226;28;20124;-69
2023/12/19 06:50:41;;;;;;;42.63;22.88;;;;;;;;;;5052263;28;20521;-69
2023/12/19 06:53:08;;;;;;;46.00;22.92;;;;;;;;;;5052291;28;20095;-69
2023/12/19 06:55:36;;;;;;;59.53;31.13;;;;;;;;;;5052042;28;20052;-69
2023/12/19 06:58:03;;;;;;;68.28;36.22;;;;;;;;;;5052132;28;20038;-69
2023/12/19 07:00:32;;;;;;;48.42;27.60;;;;;;;;;;5052161;28;20098;-69
2023/12/19 07:03:00;;;;;;;40.33;22.88;;;;;;;;;;5052198;28;20045;-69
2023/12/19 07:05:27;;;;;;;36.38;21.95;;;;;;;;;;5052060;28;20104;-68
2023/12/19 07:07:55;;;;;;;38.67;20.67;;;;;;;;;;5052020;28;20045;-68
2023/12/19 07:10:23;;;;;;;37.13;22.05;;;;;;;;;;5052127;28;20497;-69
2023/12/19 07:12:50;;;;;;;37.15;21.48;;;;;;;;;;5054339;28;20045;-69
2023/12/19 07:15:18;;;;;;;36.40;22.63;;;;;;;;;;5056123;28;20391;-69
2023/12/19 07:17:46;;;;;;;36.40;21.88;;;;;;;;;;5055901;28;20063;-69
2023/12/19 07:20:13;;;;;;;47.00;23.38;;;;;;;;;;5055893;28;20044;-69
2023/12/19 07:22:41;;;;;;;35.25;21.70;;;;;;;;;;5055724;28;20055;-69
2023/12/19 07:25:09;;;;;;;38.83;23.45;;;;;;;;;;5055764;28;20398;-69
2023/12/19 07:27:37;;;;;;;39.70;23.02;;;;;;;;;;5055707;28;20041;-69
2023/12/19 07:30:09;;;;;;;38.30;22.27;;;;;;;;;;5055611;28;20095;-69
2023/12/19 07:32:36;;;;;;;40.08;24.30;;;;;;;;;;5055695;28;20044;-69
2023/12/19 07:35:06;;;;;;;42.40;23.10;;;;;;;;;;5055476;28;20069;-69
2023/12/19 07:37:33;;;;;;;40.33;23.85;;;;;;;;;;5055527;28;20648;-69
2023/12/19 07:40:05;;;;;;;39.17;21.75;;;;;;;;;;5055444;28;20414;-69
2023/12/19 07:42:33;;;;;;;32.30;17.88;;;;;;;;;;5055422;28;20103;-69
2023/12/19 07:45:02;;;;;;;27.80;16.30;;;;;;;;;;5055455;28;20033;-69
2023/12/19 07:47:30;;;;;;;27.35;15.95;;;;;;;;;;5055151;28;20103;-69
2023/12/19 07:49:58;;;;;;;25.98;15.35;;;;;;;;;;5055315;28;20044;-69
2023/12/19 07:52:28;;;;;;;20.48;13.18;;;;;;;;;;5055267;28;20041;-69
2023/12/19 07:54:56;;;;;;;24.02;12.65;;;;;;;;;;5055169;28;20037;-68
2023/12/19 07:57:23;;;;;;;19.73;11.27;;;;;;;;;;5053739;28;20041;-68
2023/12/19 07:59:51;;;;;;;16.13;10.43;;;;;;;;;;5054964;28;20065;-68
2023/12/19 08:02:19;;;;;;;18.02;9.75;;;;;;;;;;5054984;28;20091;-69
2023/12/19 08:04:46;;;;;;;13.30;8.55;;;;;;;;;;5054958;28;20182;-69
2023/12/19 08:07:14;;;;;;;16.00;9.13;;;;;;;;;;5054949;28;20037;-68
2023/12/19 08:09:41;;;;;;;12.30;7.53;;;;;;;;;;5054916;28;20033;-68
2023/12/19 08:12:09;;;;;;;12.18;6.25;;;;;;;;;;5054843;28;20486;-68
2023/12/19 08:14:37;;;;;;;9.60;4.97;;;;;;;;;;5054647;28;20121;-69
2023/12/19 08:17:04;;;;;;;8.50;5.30;;;;;;;;;;5054671;28;20040;-68
2023/12/19 08:19:32;;;;;;;8.60;4.60;;;;;;;;;;5054529;28;20121;-70
2023/12/19 08:22:00;;;;;;;6.43;4.32;;;;;;;;;;5054502;28;20475;-70
2023/12/19 08:24:27;;;;;;;10.85;4.25;;;;;;;;;;5053509;28;20060;-69
2023/12/19 08:26:55;;;;;;;10.35;5.50;;;;;;;;;;5053485;28;20044;-69
2023/12/19 08:29:22;;;;;;;9.13;4.90;;;;;;;;;;5053350;28;20083;-69
2023/12/19 08:31:50;;;;;;;11.68;5.15;;;;;;;;;;5053002;28;20040;-69
2023/12/19 08:34:18;;;;;;;17.35;4.93;;;;;;;;;;5054386;28;20590;-68
2023/12/19 08:36:46;;;;;;;10.15;5.30;;;;;;;;;;5054291;28;20045;-68
2023/12/19 08:39:14;;;;;;;9.45;4.55;;;;;;;;;;5054243;28;20376;-68
2023/12/19 08:41:46;;;;;;;9.55;4.90;;;;;;;;;;5053068;28;20080;-68
2023/12/19 08:44:14;;;;;;;11.25;4.72;;;;;;;;;;5054294;28;20033;-68
2023/12/19 08:46:41;;;;;;;9.13;4.32;;;;;;;;;;5052876;28;20047;-68
2023/12/19 08:49:10;;;;;;;7.30;4.03;;;;;;;;;;5054221;28;20499;-68
2023/12/19 08:51:45;;;;;;;7.50;4.50;;;;;;;;;;5054436;28;20437;-68
2023/12/19 08:54:13;;;;;;;8.10;4.18;;;;;;;;;;5054107;28;20052;-67
2023/12/19 08:56:42;;;;;;;9.15;4.38;;;;;;;;;;5053814;28;20044;-67
2023/12/19 08:59:09;;;;;;;6.20;4.05;;;;;;;;;;5053940;28;20075;-67
2023/12/19 09:01:37;;;;;;;17.20;5.20;;;;;;;;;;5052624;28;20063;-67
2023/12/19 09:04:05;;;;;;;6.70;4.00;;;;;;;;;;5053926;28;20299;-67
2023/12/19 09:06:32;;;;;;;8.23;3.97;;;;;;;;;;5053888;28;20037;-68
2023/12/19 09:09:01;;;;;;;5.80;4.05;;;;;;;;;;5053730;28;20043;-68
2023/12/19 09:11:28;;;;;;;6.22;4.20;;;;;;;;;;5053768;28;20041;-69
2023/12/19 09:13:59;;;;;;;10.00;4.63;;;;;;;;;;5053633;28;20551;-69
2023/12/19 09:16:28;;;;;;;9.93;4.70;;;;;;;;;;5053697;28;20367;-69
2023/12/19 09:18:56;;;;;;;8.63;4.60;;;;;;;;;;5053383;28;20049;-69
2023/12/19 09:21:24;;;;;;;6.15;3.92;;;;;;;;;;5053261;28;20044;-68
2023/12/19 09:23:52;;;;;;;7.65;3.80;;;;;;;;;;5052213;28;20449;-69
2023/12/19 09:26:19;;;;;;;7.10;4.43;;;;;;;;;;5053438;28;20067;-69
2023/12/19 09:28:47;;;;;;;8.00;4.38;;;;;;;;;;5053381;28;20049;-69
2023/12/19 09:31:18;;;;;;;7.32;4.15;;;;;;;;;;5053538;28;20049;-69
2023/12/19 09:33:46;;;;;;;6.50;4.40;;;;;;;;;;5053570;28;20478;-69
2023/12/19 09:36:26;;;;;;;8.25;4.65;;;;;;;;;;5052570;28;20061;-68
2023/12/19 09:38:54;;;;;;;8.95;5.38;;;;;;;;;;5053217;28;20041;-69
2023/12/19 09:41:22;;;;;;;10.75;5.93;;;;;;;;;;5052093;28;20070;-68
2023/12/19 09:43:49;;;;;;;8.57;5.35;;;;;;;;;;5053066;28;20091;-69
2023/12/19 09:46:16;;;;;;;7.03;4.70;;;;;;;;;;5052952;28;20037;-68
2023/12/19 09:48:45;;;;;;;8.43;5.22;;;;;;;;;;5053103;28;20571;-68
2023/12/19 09:51:20;;;;;;;9.93;4.78;;;;;;;;;;5052959;28;20052;-68
2023/12/19 09:53:49;;;;;;;8.43;5.18;;;;;;;;;;5053055;28;20469;-69
2023/12/19 09:56:17;;;;;;;9.75;5.43;;;;;;;;;;5052795;28;20072;-68
2023/12/19 09:58:45;;;;;;;8.95;5.63;;;;;;;;;;5052986;28;20037;-68
2023/12/19 10:01:12;;;;;;;8.90;5.75;;;;;;;;;;5052689;28;20045;-68
2023/12/19 10:03:42;;;;;;;11.05;6.28;;;;;;;;;;5051494;28;20437;-68
2023/12/19 10:06:10;;;;;;;9.38;5.60;;;;;;;;;;5053061;28;20071;-68
2023/12/19 10:08:44;;;;;;;7.47;5.43;;;;;;;;;;5052618;28;20339;-69
2023/12/19 10:11:18;;;;;;;14.63;6.03;;;;;;;;;;5052896;28;20071;-70
2023/12/19 10:13:46;;;;;;;10.02;6.25;;;;;;;;;;5051422;28;20103;-69
2023/12/19 10:16:20;;;;;;;10.15;6.60;;;;;;;;;;5052423;28;20074;-69
2023/12/19 10:19:01;;;;;;;10.07;6.07;;;;;;;;;;5052616;28;20041;-68
2023/12/19 10:21:31;;;;;;;8.88;6.05;;;;;;;;;;5052546;28;20509;-68
2023/12/19 10:24:11;;;;;;;8.13;5.95;;;;;;;;;;5052565;28;20041;-68
2023/12/19 10:26:39;;;;;;;9.30;5.88;;;;;;;;;;5052530;28;20033;-69
2023/12/19 10:29:07;;;;;;;8.18;5.75;;;;;;;;;;5052483;28;20049;-69
2023/12/19 10:31:34;;;;;;;9.20;5.93;;;;;;;;;;5052415;28;20045;-69
2023/12/19 10:34:04;;;;;;;10.60;6.00;;;;;;;;;;5052415;28;20120;-69
2023/12/19 10:36:34;;;;;;;10.10;6.50;;;;;;;;;;5052460;28;20056;-69
2023/12/19 10:39:05;;;;;;;9.23;6.63;;;;;;;;;;5051253;28;20037;-69
2023/12/19 10:41:34;;;;;;;9.18;5.70;;;;;;;;;;5050949;28;20048;-69
2023/12/19 10:44:02;;;;;;;8.45;6.03;;;;;;;;;;5052291;28;20043;-69
2023/12/19 10:46:31;;;;;;;11.48;5.78;;;;;;;;;;5051055;28;20102;-68
2023/12/19 10:48:59;;;;;;;13.15;5.43;;;;;;;;;;5055082;28;20041;-69
2023/12/19 10:51:34;;;;;;;8.00;6.00;;;;;;;;;;5056321;28;20041;-67
2023/12/19 10:54:08;;;;;;;10.25;5.93;;;;;;;;;;5054584;28;20048;-69
2023/12/19 10:56:42;;;;;;;10.27;5.93;;;;;;;;;;5055988;28;20629;-68
2023/12/19 10:59:12;;;;;;;9.00;5.60;;;;;;;;;;5054591;28;20048;-68
2023/12/19 11:01:40;;;;;;;7.93;5.85;;;;;;;;;;5056034;28;20043;-69
2023/12/19 11:04:12;;;;;;;8.98;5.60;;;;;;;;;;5055916;28;20045;-69
2023/12/19 11:06:43;;;;;;;9.75;5.72;;;;;;;;;;5056124;28;20095;-70
2023/12/19 11:09:13;;;;;;;9.20;5.80;;;;;;;;;;5055796;28;20561;-69
2023/12/19 11:11:43;;;;;;;9.20;6.20;;;;;;;;;;5060874;28;20056;-68
2023/12/19 11:14:10;;;;;;;8.88;5.90;;;;;;;;;;5064233;28;20489;-68
2023/12/19 11:16:50;;;;;;;11.73;6.47;;;;;;;;;;5075727;28;20037;-68
2023/12/19 11:19:24;;;;;;;9.50;5.85;;;;;;;;;;5075606;28;20040;-68
2023/12/19 11:21:55;;;;;;;9.85;6.72;;;;;;;;;;5076004;28;20489;-68
2023/12/19 11:24:26;;;;;;;11.77;6.95;;;;;;;;;;5075680;28;20039;-68
2023/12/19 11:26:59;;;;;;;12.05;7.07;;;;;;;;;;5075867;28;20099;-68
2023/12/19 11:29:46;;;;;;;10.70;6.80;;;;;;;;;;5075594;28;20048;-68
2023/12/19 11:32:29;;;;;;;10.27;6.70;;;;;;;;;;5075592;28;20040;-69
2023/12/19 11:35:09;;;;;;;12.30;7.35;;;;;;;;;;5075515;28;20068;-69
2023/12/19 11:37:37;;;;;;;14.00;6.80;;;;;;;;;;5074194;28;20044;-69
2023/12/19 11:40:11;;;;;;;9.38;6.35;;;;;;;;;;5075798;28;20037;-69
2023/12/19 11:42:39;;;;;;;11.10;7.10;;;;;;;;;;5075365;28;20047;-68
2023/12/19 11:45:16;;;;;;;12.68;6.95;;;;;;;;;;5075393;28;20041;-69
2023/12/19 11:47:49;;;;;;;9.52;6.68;;;;;;;;;;5074100;28;20053;-69
2023/12/19 11:50:36;;;;;;;8.85;6.18;;;;;;;;;;5075662;28;20575;-69
2023/12/19 11:53:03;;;;;;;11.50;6.57;;;;;;;;;;5075167;28;20060;-69
2023/12/19 11:55:31;;;;;;;12.85;7.38;;;;;;;;;;5074804;28;20390;-68
2023/12/19 11:58:08;;;;;;;9.63;7.00;;;;;;;;;;5074856;28;20040;-68
2023/12/19 12:00:36;;;;;;;11.73;7.97;;;;;;;;;;5075108;28;20037;-69
2023/12/19 12:03:07;;;;;;;10.80;7.65;;;;;;;;;;5074977;28;20112;-69
2023/12/19 12:05:35;;;;;;;13.23;7.18;;;;;;;;;;5074975;28;20393;-69
2023/12/19 12:08:02;;;;;;;13.05;8.00;;;;;;;;;;5074993;28;20045;-69
2023/12/19 12:10:30;;;;;;;15.82;8.10;;;;;;;;;;5073681;28;20049;-69
2023/12/19 12:13:01;;;;;;;18.63;8.32;;;;;;;;;;5074873;28;20358;-68
2023/12/19 12:15:29;;;;;;;11.75;7.70;;;;;;;;;;5074771;28;20132;-69
2023/12/19 12:18:05;;;;;;;10.25;7.55;;;;;;;;;;5074838;28;20044;-68
2023/12/19 12:20:34;;;;;;;11.68;6.95;;;;;;;;;;5074678;28;20098;-69
2023/12/19 12:23:03;;;;;;;14.00;7.43;;;;;;;;;;5074774;28;20390;-69
2023/12/19 12:25:31;;;;;;;11.20;7.57;;;;;;;;;;5074434;28;20040;-69
2023/12/19 12:28:17;;;;;;;11.15;7.15;;;;;;;;;;5074489;28;20482;-69
2023/12/19 12:30:46;;;;;;;10.95;7.55;;;;;;;;;;5074756;28;20124;-69
2023/12/19 12:33:14;;;;;;;11.70;7.15;;;;;;;;;;5073441;28;20131;-69
2023/12/19 12:35:41;;;;;;;11.55;7.57;;;;;;;;;;5074332;28;20052;-69
2023/12/19 12:38:17;;;;;;;12.38;8.10;;;;;;;;;;5074370;28;20536;-68
2023/12/19 12:40:56;;;;;;;13.68;8.55;;;;;;;;;;5074261;28;20051;-69
2023/12/19 12:43:34;;;;;;;13.73;8.80;;;;;;;;;;5074276;28;20041;-68
2023/12/19 12:46:08;;;;;;;12.43;8.40;;;;;;;;;;5074097;28;20068;-68
2023/12/19 12:48:38;;;;;;;18.33;9.13;;;;;;;;;;5073800;28;20053;-68
2023/12/19 12:51:06;;;;;;;12.52;8.38;;;;;;;;;;5074263;28;20068;-68
2023/12/19 12:53:35;;;;;;;13.90;8.35;;;;;;;;;;5074090;28;20043;-69
2023/12/19 12:56:04;;;;;;;13.88;9.13;;;;;;;;;;5074016;28;20047;-68
2023/12/19 12:58:32;;;;;;;13.40;8.35;;;;;;;;;;5073859;28;20071;-69
2023/12/19 13:01:00;;;;;;;16.88;9.77;;;;;;;;;;5073813;28;20040;-69
2023/12/19 13:03:29;;;;;;;14.50;9.48;;;;;;;;;;5073670;28;20040;-69
2023/12/19 13:06:00;;;;;;;13.75;9.52;;;;;;;;;;5073666;28;20462;-68
2023/12/19 13:08:31;;;;;;;14.63;9.02;;;;;;;;;;5073513;28;20094;-69
2023/12/19 13:11:03;;;;;;;14.30;9.07;;;;;;;;;;5073085;28;20127;-69
2023/12/19 13:13:31;;;;;;;17.50;9.55;;;;;;;;;;5073547;28;20048;-69
2023/12/19 13:15:58;;;;;;;15.18;10.25;;;;;;;;;;5072207;28;20474;-68
2023/12/19 13:18:26;;;;;;;14.38;9.32;;;;;;;;;;5073409;28;20040;-68
2023/12/19 13:20:53;;;;;;;14.90;9.90;;;;;;;;;;5073291;28;20040;-69
2023/12/19 13:23:21;;;;;;;15.95;10.00;;;;;;;;;;5073365;28;20047;-68
2023/12/19 13:25:48;;;;;;;16.00;11.02;;;;;;;;;;5073647;28;20044;-68
2023/12/19 13:28:16;;;;;;;16.85;11.23;;;;;;;;;;5073273;28;20116;-67
2023/12/19 13:30:44;;;;;;;18.13;11.05;;;;;;;;;;5073332;28;20059;-68
2023/12/19 13:33:13;;;;;;;18.17;11.70;;;;;;;;;;5073376;28;20068;-67
2023/12/19 13:35:40;;;;;;;19.27;10.98;;;;;;;;;;5073244;28;20544;-68
2023/12/19 13:38:09;;;;;;;24.63;12.13;;;;;;;;;;5073044;28;20098;-68
2023/12/19 13:40:37;;;;;;;18.25;11.88;;;;;;;;;;5073202;28;20064;-69
2023/12/19 13:43:05;;;;;;;18.08;11.70;;;;;;;;;;5072909;28;20090;-69
2023/12/19 13:45:34;;;;;;;18.30;11.63;;;;;;;;;;5072939;28;20135;-69
2023/12/19 13:48:02;;;;;;;17.98;10.50;;;;;;;;;;5072771;28;20049;-68
2023/12/19 13:50:30;;;;;;;16.77;10.80;;;;;;;;;;5073217;28;20402;-68
2023/12/19 13:52:58;;;;;;;18.20;11.73;;;;;;;;;;5071596;28;20489;-69
2023/12/19 13:55:25;;;;;;;19.75;12.57;;;;;;;;;;5073252;28;20052;-69
2023/12/19 13:57:53;;;;;;;21.63;13.68;;;;;;;;;;5072994;28;20040;-69
2023/12/19 14:00:20;;;;;;;19.42;13.02;;;;;;;;;;5072866;28;20037;-69
2023/12/19 14:02:59;;;;;;;22.08;12.30;;;;;;;;;;5072611;28;20490;-69
2023/12/19 14:05:27;;;;;;;22.55;13.52;;;;;;;;;;5072802;28;20064;-69
2023/12/19 14:07:56;;;;;;;16.17;11.98;;;;;;;;;;5072708;28;20116;-69
2023/12/19 14:10:26;;;;;;;21.10;13.00;;;;;;;;;;5072915;28;20044;-69
2023/12/19 14:12:54;;;;;;;20.30;12.98;;;;;;;;;;5072712;28;20051;-69
2023/12/19 14:15:22;;;;;;;27.60;13.27;;;;;;;;;;5072711;28;20048;-69
2023/12/19 14:17:50;;;;;;;23.35;14.48;;;;;;;;;;5072536;28;20110;-69
2023/12/19 14:20:18;;;;;;;19.10;13.95;;;;;;;;;;5072771;28;20036;-69
2023/12/19 14:22:46;;;;;;;18.83;12.95;;;;;;;;;;5071611;28;20478;-68
2023/12/19 14:25:13;;;;;;;22.77;15.00;;;;;;;;;;5070935;28;20037;-69
2023/12/19 14:27:41;;;;;;;25.17;15.48;;;;;;;;;;5072085;28;20040;-69
2023/12/19 14:30:09;;;;;;;28.40;16.70;;;;;;;;;;5072418;28;20090;-68
2023/12/19 14:32:38;;;;;;;30.83;16.02;;;;;;;;;;5071417;28;20045;-68
2023/12/19 14:35:08;;;;;;;23.38;15.30;;;;;;;;;;5071884;28;20032;-68
2023/12/19 14:37:36;;;;;;;30.65;16.25;;;;;;;;;;5072102;28;20052;-67
2023/12/19 14:40:04;;;;;;;22.85;15.27;;;;;;;;;;5054034;28;20099;-68